マニラ/ニノイ・アキノ の空港の天気 - METARとTAF

ニノイ・アキノ国際空港 ( RPLL / MNL ) - フィリピン マニラ
飛行場実況気象(Metar)
観測時間11/27 16:00 PHT (11/27 08:00 UTC)
風向・風速東南東 6m/s
視程10km以上
天気現象
少しの雲 雲底高度 760m
気温31℃
湿度59%
気圧1008hPa
METARRPLL 270800Z 11012KT 090V150 9999 FEW025 31/22 Q1008 NOSIG RMK A2977
過去の天気等 Google飛行場航空写真 Wunderground天気予報

過去48時間のMETAR

飛行場予報(TAF)
発表時間: 11/27 13:00 PHT (11/27 05:00 UTC)
予報対象時間: 27日14時 PHT ~ 28日20時 PHT
風向・風速東 4m/s
視程10km以上
少しの雲 雲底高度 760m
27日14時 PHT ~ 27日20時 PHT に一時的に
風向・風速東南東 7m/s
少しの雲 雲底高度 700m
全天の4割程度の雲 雲底高度 3050m
28日11時 PHT ~ 28日17時 PHT に一時的に
少しの雲 雲底高度 700m
全天の4割程度の雲 雲底高度 3050m
TAF RPLL 270500Z 2706/2812 10008KT 9999 FEW025 TX33/2706Z TN26/2720Z
TEMPO 2706/2712 11014KT FEW023 SCT100
TEMPO 2803/2809 FEW023 SCT100